Terminal Aerodrome Forecast
Issued by NWS

Home | Current Version | Previous Version | Text Only | Print | Product List | Glossary On
Versions: 1 2 3 4 5 6 7 8 9 10 11 12 13 14
757
FTUS43 KGRR 090406 AAA
TAFAZO
TAF AMD
KAZO 090406Z 0904/0924 28008KT P6SM -SN OVC008
     FM091100 31010KT 6SM -SN OVC012
     FM091600 31012G21KT 6SM -SN OVC015=

USA.gov is the U.S. government's official web portal to all federal, state and local government web resources and services.